Situs API Video Gratis Terbaik

AVDBAPI.COM

Cari katalog, periksa data, dan salin URL API bersih dari satu dasbor cepat.

Telegram Gabung komunitas Telegram untuk update!
Today
36
Pembaruan Hari Ini
Censored
314014
Video Disensor
Total
474173
Total Video

Daftar Video

Data terbaru diurutkan berdasarkan waktu pembaruan.

ID Nama CODE Kategori Diperbarui API
269449 012820-001 Pelayan Jalang Yang Langsung Mau Nunggang ~ Selamat Datang Kembali, Tuan ~ Mikuro Komori 012820-001 Tanpa sensor 2025-08-29 16:26:30 API
269448 102618-364 Wanita matang berputing panjang yang diikat dan mengompol sembarangan 102618-364 Tanpa sensor 2025-08-29 16:26:20 API
269447 021518 Koleksi Model Seksi Miharu Tanaka 021518_646 Tanpa sensor 2025-08-29 16:26:10 API
269446 052319-01 012319-01 Pengalaman pertama aku nggak sakit karena sudah masturbasi duluan 052319-01 Tanpa sensor 2025-08-29 16:26:00 API
269445 H4610-KI200815 Fitur Spesial Ngompol Basah H4610-KI200815 Tanpa sensor 2025-08-29 16:25:50 API
269444 HEYZO-2158 Kenikmatan dengan Massage Erotis! - Kasus Nanami Mizusaki - HEYZO-2158 Tanpa sensor 2025-08-29 16:25:40 API
269443 C0930-KI190523 Moriyama Shino Nenek Seksi Usia 66 Tahun C0930-KI190523 Tanpa sensor 2025-08-29 16:25:30 API
269442 FC2-PPV-4440151 Untuk mahasiswa tahun ketiga yang haus seks yang bekerja di kampus: Mencoba threesome dengan gadis cantik idaman yang polos dan ceroboh FC2-PPV-4440151 Tanpa sensor 2025-08-29 16:25:20 API
269441 102718-365 Buku Foto Memek Istri Orang 96 102718-365 Tanpa sensor 2025-08-29 16:25:10 API
269440 H0930-KI191012 Gold Pack: Istri Pekerja Usia 20 Tahun Yang Menggoda H0930-KI191012 Tanpa sensor 2025-08-29 16:25:00 API
269439 012920-001 Makika BEST: Aksi Tarikan Gairah Terbaik dari Makika 012920-001 Tanpa sensor 2025-08-29 16:24:50 API
269438 HEYZO-2207 Masami Creampie di Payudara Kecil dengan Reaksi yang Menggemaskan HEYZO-2207 Tanpa sensor 2025-08-29 16:24:40 API
269437 C0930-KI190526 Tomomi Tani Wanita Matang 42 Tahun C0930-KI190526 Tanpa sensor 2025-08-29 16:24:30 API
269436 021718_647 Jalang Yuuki Miu 021718_647 Tanpa sensor 2025-08-29 16:24:20 API
269435 102718-366 Pelatihan Istri Orang Nadeshiko ~ Si Cantik Berkimono yang Berantakan Setelah Sekian Lama~ 102718-366 Tanpa sensor 2025-08-29 16:24:10 API
269434 H4610-ORI1732 Yuria Inaya, 21 Tahun H4610-ORI1732 Tanpa sensor 2025-08-29 16:24:00 API
269433 HEYZO-2159 Gadis Tinggi Ini Dihancurkan Hidupnya Berulang Kali HEYZO-2159 Tanpa sensor 2025-08-29 16:23:50 API
269432 052519-01 Menelan Sperma Amatir Kesayangan 052519-01 Tanpa sensor 2025-08-29 16:23:40 API
269431 013020-001 Rahasia Tersembunyi ~ Tiga Payudara Besar Tenggelam dalam Daging Saat Dicokot Sekaligus ~ Honoka Orihara, Kurumi, Koi Prayer, Kisumi 013020-001 Tanpa sensor 2025-08-29 16:23:30 API
269430 H0930-TK0009 Shiwa Ayumi Cantik Usia 28 Tahun H0930-TK0009 Tanpa sensor 2025-08-29 16:23:20 API
269429 C0930-KI190525 Video Selfie Masturbasi yang Sangat Nikmat C0930-KI190525 Tanpa sensor 2025-08-29 16:23:10 API
269428 103018-367 Istri Orang Disiksa Dengan Ikatan Dalam Serangan Brutal Rotor, Vibrator, dan Alat Setrum 103018-367 Tanpa sensor 2025-08-29 16:23:00 API
269427 013120-001 Lihat aku bersetubuh! Tolong ejakulasi di wajahku! Nene Sakura 013120-001 Tanpa sensor 2025-08-29 16:22:50 API
269426 H4610-KI200823 Mayumi Shimoyama Wanita 24 Tahun H4610-KI200823 Tanpa sensor 2025-08-29 16:22:40 API
269425 022018_648 Office Beauty Yumi Maeda Langsung Naik Ke Atas Melakukan Cowgirl 022018_648 Tanpa sensor 2025-08-29 16:22:30 API
269424 FC2-PPV-4438721 [Slim-faced Guobao] Istri dengan Gairah Seksual Tinggi! Teknik Ejakulasi Gila yang Bikin Ketagihan! [Sachika (30)] [Bonus Komentar Tersedia] FC2-PPV-4438721 Tanpa sensor 2025-08-29 16:22:20 API
269423 HEYZO-2160 Semprotin Sperma ke Amatir Santakos! HEYZO-2160 Tanpa sensor 2025-08-29 16:22:10 API
269422 C0930-HITOZUMA1282 Rimi Manaka, 27 tahun C0930-HITOZUMA1282 Tanpa sensor 2025-08-29 16:22:00 API
269421 MUSUME-052819_01 Banyak Gadis Masokis Pemuja Susu Bermunculan MUSUME-052819_01 Tanpa sensor 2025-08-29 16:21:50 API
269420 H0930-KI191015 Yukiko Ohira Wanita Matang 42 Tahun H0930-KI191015 Tanpa sensor 2025-08-29 16:21:40 API
269419 110118-368 Buku Foto Memek Istri Orang 97 110118-368 Tanpa sensor 2025-08-29 16:21:30 API
269418 020120-001 Merawat Yuna Sasaki ~ Istri Putih Mulus Berwajah Cantik dan Elegan Sukarela Jadi Budak Dogeza ~ Yuna Sasaki 020120-001 Tanpa sensor 2025-08-29 16:21:20 API
269417 H4610-KI200825 Eri Maeda Gadis 19 Tahun H4610-KI200825 Tanpa sensor 2025-08-29 16:21:10 API
269416 022418_650 Hubungan Rahasia dengan Ibu Temanku 022418_650 Tanpa sensor 2025-08-29 16:21:00 API
269414 110118-369 Pertama kalinya Istri Berwajah Imut Mencukur Bulu Kemaluan 110118-369 Tanpa sensor 2025-08-29 16:20:40 API
269413 HEYZO-2161 Meri Kuri ejakulasi di mulut cewek Santa montok! - Aku juga nembak di dalam vagina!! ~ HEYZO-2161 Tanpa sensor 2025-08-29 16:20:30 API
269412 C0930-KI190528 Shigeko Yokoi Wanita Matang 42 Tahun C0930-KI190528 Tanpa sensor 2025-08-29 16:20:20 API
269411 SDAB-305 Cewek Nenen Gede yang Polos Ini Saking Sange Sampai Gak Tahan! Pertama Kali Kena Creampie Pas Lagi Jalan-jalan! Amai Kurumi SDAB-305 Disensor (Mosaik) 2025-08-29 16:20:10 API
269410 052819-01 012819-01 Anak Gadis Masokis Saya Banjir Susu Karena Kenikmatan 052819-01 Tanpa sensor 2025-08-29 16:20:00 API
269409 H4610-KI200827 Mika Inoue H4610-KI200827 Tanpa sensor 2025-08-29 16:19:50 API
269408 H0930-KI191017 Babe 32 Tahun Kajitani Shizuka H0930-KI191017 Tanpa sensor 2025-08-29 16:19:40 API
269407 FC2-PPV-4436118 Pengalaman menggoda dari mahasiswi kampus ternama! Takluk di tengah rapat perusahaan besar dan mainkan gadis cantik ini! Ini pertama kalinya dia mau syuting video! FC2-PPV-4436118 Tanpa sensor 2025-08-29 16:19:30 API
269406 022718_651 Tokimeki ~ Pacarku adalah Sukehei Nakamate-chan ~ 022718_651 Tanpa sensor 2025-08-29 16:19:20 API
269405 020420-001 An Takase tidak bisa melupakan tubuh mantan pacarnya yang kini telah menjadi pengantin sahabatnya 020420-001 Tanpa sensor 2025-08-29 16:19:10 API
269404 C0930-KI190530 Sayuri Nakahara Wanita Matang 40 Tahun C0930-KI190530 Tanpa sensor 2025-08-29 16:19:00 API
269403 110318-371 Wanita Matang Arafif Diikat Menggunakan Tempurung Kura 110318-371 Tanpa sensor 2025-08-29 16:18:50 API
269402 HEYZO-2162 Godaan Guru Hikari - Aku Ingin Tubuh Muridku! HEYZO-2162 Tanpa sensor 2025-08-29 16:18:40 API
269401 053019-01 Tolong coret-coret tubuh si jalang F 053019-01 Tanpa sensor 2025-08-29 16:18:30 API
269400 SKY-177 Petualangan Ranjang Istri Pemadu 13 SKY-177 Tanpa sensor 2025-08-29 16:18:20 API
269399 H4610-ORI1733 Gadis Cantik 22 Tahun Aoi Namikoshi H4610-ORI1733 Tanpa sensor 2025-08-29 16:18:10 API